Bookmark and Share
Track history (hours):
 

MSC Susanna

Last reported at 2014-Apr-24 09:32 UTC. Time now 2014-Apr-24 09:42 UTC.
Position N 51°19' E 004°19'.

Length 337 m; draft 12.9 m.

Type: Ship (hazmat cat A). MMSI: 371466000.

NotesDate/timePositionNaut miles runAvg speedWind from/ knotsBaromVisibWave heightAir tempDewpointWater temp
2014-Apr-24 09:32N 51°19' E 004°19'0 0.0
2014-Apr-24 08:32N 51°19' E 004°19'0 0.4
2014-Apr-24 07:33N 51°19' E 004°19'2 1.6
2014-Apr-24 06:34N 51°21' E 004°17'1 0.7
2014-Apr-24 05:34N 51°21' E 004°16'9 8.8
2014-Apr-24 04:34N 51°23' E 004°02'10 9.6
2014-Apr-24 03:34N 51°21' E 003°47'1110.6
2014-Apr-24 02:33N 51°25' E 003°32'1313.2
2014-Apr-24 01:33N 51°24' E 003°11'8 7.8
2014-Apr-24 00:33N 51°31' E 003°06'1413.7
2014-Apr-23 23:33N 51°44' E 003°13'1413.5
2014-Apr-23 22:31N 51°58' E 003°19'1717.5
2014-Apr-23 21:33N 52°14' E 003°24'7318.3
2014-Apr-23 17:33N 53°16' E 004°28'1918.6
2014-Apr-23 16:33N 53°31' E 004°48'1919.4
2014-Apr-23 15:33N 53°38' E 005°18'1918.7
2014-Apr-23 14:33N 53°45' E 005°48'1818.2
2014-Apr-23 13:33N 53°49' E 006°18'1818.4
2014-Apr-23 12:33N 53°54' E 006°48'1919.0
2014-Apr-23 11:33N 53°59' E 007°19'2019.5
2014-Apr-23 10:33N 54°01' E 007°52'1717.4
2014-Apr-23 09:34N 53°60' E 008°21'1615.9
2014-Apr-23 08:33N 53°52' E 008°45'1414.0
2014-Apr-23 07:33N 53°53' E 009°08'10 9.7
2014-Apr-23 06:34N 53°48' E 009°23'1212.0
2014-Apr-23 05:33N 53°38' E 009°32'9 9.3
2014-Apr-23 04:33N 53°34' E 009°47'5 4.8
2014-Apr-23 03:33N 53°32' E 009°54'0 0.0
2014-Apr-23 02:33N 53°32' E 009°54'0 0.0
2014-Apr-23 01:33N 53°32' E 009°54'0 0.0
2014-Apr-23 00:33N 53°32' E 009°54'0 0.0
2014-Apr-22 23:33N 53°32' E 009°54'0 0.0
2014-Apr-22 22:33N 53°32' E 009°54'0 0.0
2014-Apr-22 21:33N 53°32' E 009°54'0 0.0
2014-Apr-22 20:33N 53°32' E 009°54'0 0.0
2014-Apr-22 19:33N 53°32' E 009°54'0 0.0
2014-Apr-22 18:33N 53°32' E 009°54'0 0.0
2014-Apr-22 17:33N 53°32' E 009°54'0 0.0
2014-Apr-22 16:33N 53°32' E 009°54'0 0.0
2014-Apr-22 15:33N 53°32' E 009°54'0 0.0
2014-Apr-22 14:33N 53°32' E 009°54'0 0.0
2014-Apr-22 13:33N 53°32' E 009°54'0 0.0
2014-Apr-22 12:33N 53°32' E 009°54'0 0.0
2014-Apr-22 11:33N 53°32' E 009°54'0 0.0
2014-Apr-22 10:33N 53°32' E 009°54'0 0.0
2014-Apr-22 09:33N 53°32' E 009°54'0 0.0
2014-Apr-22 08:33N 53°32' E 009°54'0 0.0
2014-Apr-22 07:33N 53°32' E 009°54'0 0.0
2014-Apr-22 06:33N 53°32' E 009°54'0 0.0
2014-Apr-22 05:34N 53°32' E 009°54'0 0.2
2014-Apr-22 04:33N 53°32' E 009°54'7 7.5
2014-Apr-22 03:33N 53°34' E 009°42'1211.9
2014-Apr-22 02:33N 53°43' E 009°29'1514.6
2014-Apr-22 01:33N 53°53' E 009°11'1212.1
2014-Apr-22 00:33N 53°50' E 008°51'1211.9
2014-Apr-21 23:33N 53°58' E 008°35'1414.2
2014-Apr-21 22:33N 53°60' E 008°11'5 5.0
2014-Apr-21 21:33N 53°59' E 008°03'3 3.3
2014-Apr-21 20:34N 53°58' E 007°57'4 4.4
2014-Apr-21 19:34N 53°57' E 007°50'9 9.0
2014-Apr-21 18:33N 53°55' E 007°35'1111.0
2014-Apr-21 17:33N 53°53' E 007°16'1111.4
2014-Apr-21 16:33N 53°50' E 006°58'1210.9
2014-Apr-21 15:25N 53°47' E 006°37'1311.0
2014-Apr-21 14:12N 53°44' E 006°15'811.5
2014-Apr-21 13:31N 53°41' E 006°03'1111.7
2014-Apr-21 12:33N 53°38' E 005°45'1212.1
2014-Apr-21 11:33N 53°34' E 005°25'1212.4
2014-Apr-21 10:34N 53°30' E 005°06'1312.5
2014-Apr-21 09:33N 53°26' E 004°46'1313.0
2014-Apr-21 08:33N 53°15' E 004°34'1313.3
2014-Apr-21 07:33N 53°03' E 004°23'1313.1
2014-Apr-21 06:34N 52°51' E 004°14'1312.5
2014-Apr-21 05:33N 52°42' E 004°01'1312.7
2014-Apr-21 04:33N 52°32' E 003°47'1212.2
2014-Apr-21 03:34N 52°24' E 003°33'1311.7
2014-Apr-21 02:26N 52°14' E 003°18'1011.2
2014-Apr-21 01:32N 52°07' E 003°06'2410.5
2014-Apr-20 23:16N 51°56' E 002°32'1211.2
2014-Apr-20 22:13N 51°53' E 002°14'711.3
2014-Apr-20 21:34N 51°51' E 002°02'1111.0
2014-Apr-20 20:33N 51°50' E 001°45'10 9.6
2014-Apr-20 19:33N 51°56' E 001°33'10 9.4
2014-Apr-20 18:33N 51°58' E 001°18'0 0.0
2014-Apr-20 17:33N 51°58' E 001°18'0 0.0
2014-Apr-20 16:33N 51°58' E 001°18'0 0.0
2014-Apr-20 15:33N 51°58' E 001°18'0 0.0
2014-Apr-20 14:33N 51°58' E 001°18'0 0.0
2014-Apr-20 13:32N 51°58' E 001°18'0 0.0
2014-Apr-20 12:32N 51°58' E 001°18'0 0.0
2014-Apr-20 11:32N 51°58' E 001°18'0 0.0
2014-Apr-20 10:32N 51°58' E 001°18'0 0.0
2014-Apr-20 09:32N 51°58' E 001°18'0 0.0
2014-Apr-20 08:27N 51°58' E 001°18'0 0.0
2014-Apr-20 07:32N 51°58' E 001°18'0 0.0
2014-Apr-20 06:32N 51°58' E 001°18'0 0.0
2014-Apr-20 05:32N 51°58' E 001°18'0 0.0
2014-Apr-20 04:32N 51°58' E 001°18'0 0.0
2014-Apr-20 03:32N 51°58' E 001°18'0 0.0
2014-Apr-20 02:32N 51°58' E 001°18'0 0.0
2014-Apr-20 01:32N 51°58' E 001°18'0 0.0
2014-Apr-20 00:32N 51°58' E 001°18'0 0.0
2014-Apr-19 23:32N 51°58' E 001°18'0 0.0
2014-Apr-19 22:32N 51°58' E 001°18'0 0.0
2014-Apr-19 21:32N 51°58' E 001°18'0 0.0
2014-Apr-19 20:32N 51°58' E 001°18'0 0.0
2014-Apr-19 19:33N 51°58' E 001°18'4 3.6
2014-Apr-19 18:33N 51°56' E 001°23'8 7.9
2014-Apr-19 17:33N 51°52' E 001°34'9 8.9
2014-Apr-19 16:34N 51°51' E 001°48'1717.4
2014-Apr-19 15:33N 51°34' E 001°53'1616.4
2014-Apr-19 14:33N 51°18' E 001°54'2020.3
2014-Apr-19 13:33N 51°02' E 001°35'3818.4
2014-Apr-19 11:30N 50°29' E 001°03'2119.4
2014-Apr-19 10:26N 50°25' E 000°31'5918.7
2014-Apr-19 07:16N 50°10' W 000°59'1216.9
2014-Apr-19 06:33N 50°07' W 001°17'  
2014-Apr-16 23:33N 38°07' W 009°39'1616.5
2014-Apr-16 22:33N 37°51' W 009°35'1616.0
2014-Apr-16 21:33N 37°35' W 009°30'1616.3
2014-Apr-16 20:33N 37°19' W 009°26'3216.2
2014-Apr-16 18:32N 36°48' W 009°14'1916.3
2014-Apr-16 17:21N 36°40' W 008°52'1316.6
2014-Apr-16 16:33N 36°36' W 008°36'1816.8
2014-Apr-16 15:30N 36°30' W 008°15'1616.7
2014-Apr-16 14:33N 36°25' W 007°57'11615.6
2014-Apr-16 07:07N 35°58' W 005°38'813.9
2014-Apr-16 06:34N 35°60' W 005°28'1514.5
2014-Apr-16 05:33N 36°02' W 005°10'41816.1
2014-Apr-15 03:34N 37°22' E 003°22'1716.5
2014-Apr-15 02:32N 37°24' E 003°43'  

Dump ship's entire track history

sailing weather and tide predictions

MSC Susanna — 3ECU4 — position and weather